Bookmark and Share
Track history (hours):
 

Kirishima Maru No.5

Last reported at 2014-Apr-15 20:03 UTC. Time now 2014-Apr-17 15:36 UTC.
Position N 36°15' E 140°60'.

Length 105 m; draft 5.4 m.

Type: Tanker. MMSI: 431000338.

NotesDate/timePositionNaut miles runAvg speedWind from/ knotsBaromVisibWave heightAir tempDewpointWater temp
2014-Apr-15 20:03N 36°15' E 140°60'714.8
2014-Apr-15 19:33N 36°07' E 140°58'1514.6
2014-Apr-15 18:33N 35°53' E 140°56'1414.5
2014-Apr-15 17:34N 35°38' E 140°55'2115.4
2014-Apr-15 16:11N 35°22' E 140°39'1015.9
2014-Apr-15 15:33N 35°13' E 140°32'1715.2
2014-Apr-15 14:26N 35°01' E 140°18'13 7.0
2014-Apr-15 12:32N 34°54' E 140°04'25512.1
2014-Apr-14 15:32N 34°13' E 134°58'1616.1
2014-Apr-14 14:33N 34°29' E 135°01'9 8.8
2014-Apr-14 13:33N 34°34' E 134°53'  
2014-Apr-11 23:23N 34°36' E 134°53'1012.4
2014-Apr-11 22:33N 34°33' E 135°05'1614.8
2014-Apr-11 21:28N 34°18' E 134°59'1314.3
2014-Apr-11 20:32N 34°04' E 134°59'25811.7
2014-Apr-10 22:28N 34°55' E 140°05'2713.3
2014-Apr-10 20:27N 35°11' E 140°31'1213.5
2014-Apr-10 19:33N 35°21' E 140°40'6 0.1
2014-Apr-08 22:22N 35°26' E 140°45'1514.9
2014-Apr-08 21:23N 35°14' E 140°34'1916.3
2014-Apr-08 20:13N 35°01' E 140°17'1115.5
2014-Apr-08 19:32N 34°55' E 140°06'25812.9
2014-Apr-07 23:33N 34°08' E 134°58'1515.3
2014-Apr-07 22:33N 34°24' E 135°00'1313.6
2014-Apr-07 21:33N 34°37' E 135°00'  

Dump ship's entire track history

sailing weather and tide predictions

Kirishima Maru No.5 — JD2506 — position and weather